Time;durP1;ratioP1;P1;durP2;ratioP2;P2;SDS_P1;SDS_P2;PMS_P1;PMS_P2;Temp;Humidity;BMP_temperature;BMP_pressure;BME280_temperature;BME280_humidity;BME280_pressure;Samples;Min_cycle;Max_cycle;Signal;HPM_P1;HPM_P2
2022/08/03 00:01:19;;;;;;;25.82;13.13;;;;;;;21.42;83.29;100673.94;1882654;76;21102;-70
2022/08/03 00:03:48;;;;;;;22.45;12.23;;;;;;;21.44;83.64;100671.97;1882682;76;21125;-70
2022/08/03 00:06:17;;;;;;;21.33;13.08;;;;;;;21.49;84.27;100666.27;1882576;76;21106;-72
2022/08/03 00:08:45;;;;;;;20.12;12.58;;;;;;;21.53;84.62;100661.83;1882705;76;21067;-71
2022/08/03 00:11:14;;;;;;;25.92;13.20;;;;;;;21.62;84.82;100667.39;1882641;76;21100;-71
2022/08/03 00:13:42;;;;;;;22.62;12.68;;;;;;;21.67;84.85;100661.98;1882650;76;21032;-71
2022/08/03 00:16:12;;;;;;;26.25;13.45;;;;;;;21.72;84.69;100665.09;1889282;75;21107;-71
2022/08/03 00:18:40;;;;;;;23.07;12.28;;;;;;;21.75;84.47;100669.35;1903815;75;21032;-71
2022/08/03 00:21:09;;;;;;;21.95;12.45;;;;;;;21.79;84.36;100662.73;1903681;75;21032;-72
2022/08/03 00:23:38;;;;;;;25.55;12.33;;;;;;;21.79;84.37;100661.39;1903776;75;21482;-71
2022/08/03 00:26:07;;;;;;;20.57;12.55;;;;;;;21.78;84.35;100664.58;1903762;75;21076;-71
2022/08/03 00:28:35;;;;;;;24.55;11.53;;;;;;;21.81;84.38;100663.44;1903767;75;21040;-71
2022/08/03 00:31:04;;;;;;;19.75;11.78;;;;;;;21.81;84.34;100658.08;1903810;75;21004;-71
2022/08/03 00:33:33;;;;;;;20.55;11.85;;;;;;;21.83;84.02;100657.95;1903686;75;21036;-72
2022/08/03 00:36:01;;;;;;;20.72;12.10;;;;;;;21.82;83.96;100652.22;1903799;75;21086;-71
2022/08/03 00:38:30;;;;;;;24.47;12.03;;;;;;;21.81;83.83;100658.08;1903890;75;21524;-71
2022/08/03 00:40:59;;;;;;;20.62;10.78;;;;;;;21.78;83.74;100655.66;1903761;75;21113;-71
2022/08/03 00:43:27;;;;;;;20.95;12.95;;;;;;;21.73;83.49;100656.58;1903766;75;21036;-71
2022/08/03 00:45:56;;;;;;;23.50;12.80;;;;;;;21.69;83.52;100656.47;1903675;75;21040;-72
2022/08/03 00:48:24;;;;;;;21.68;12.90;;;;;;;21.65;83.56;100660.41;1903704;75;21043;-71
2022/08/03 00:50:54;;;;;;;18.82;10.93;;;;;;;21.60;83.73;100655.46;1903835;75;21423;-71
2022/08/03 00:53:24;;;;;;;23.80;12.73;;;;;;;21.53;83.82;100659.16;1903783;75;21536;-71
2022/08/03 00:55:53;;;;;;;31.05;13.13;;;;;;;21.48;83.86;100662.71;1903779;75;21596;-71
2022/08/03 00:58:22;;;;;;;21.45;11.88;;;;;;;21.43;84.02;100659.55;1903762;75;21110;-71
2022/08/03 01:00:51;;;;;;;20.75;10.95;;;;;;;21.41;83.98;100661.51;1903736;75;21114;-71
2022/08/03 01:03:20;;;;;;;22.55;10.55;;;;;;;21.37;83.78;100660.92;1903776;75;21032;-71
2022/08/03 01:06:07;;;;;;;21.50;10.95;;;;;;;21.33;83.62;100657.31;1903780;75;21023;-71
2022/08/03 01:08:38;;;;;;;21.48;10.78;;;;;;;21.27;83.44;100656.02;1903257;75;21106;-71
2022/08/03 01:11:19;;;;;;;17.90;10.15;;;;;;;21.20;83.29;100654.84;1903052;75;21043;-71
2022/08/03 01:13:56;;;;;;;21.27;11.43;;;;;;;21.13;83.24;100651.82;1903314;75;21012;-70
2022/08/03 01:16:33;;;;;;;24.82;13.00;;;;;;;21.07;83.17;100653.69;1849688;75;21044;-71
2022/08/03 01:19:28;;;;;;;24.90;12.65;;;;;;;21.07;83.33;100658.20;1903691;75;21172;-71
2022/08/03 01:22:17;;;;;;;23.45;11.78;;;;;;;21.07;83.49;100660.38;1903665;75;21043;-71
2022/08/03 01:25:22;;;;;;;21.97;10.95;;;;;;;21.05;83.46;100654.31;1814494;75;21147;-72
2022/08/03 01:28:10;;;;;;;19.77;10.70;;;;;;;21.01;83.36;100656.89;1903587;75;21059;-71
2022/08/03 01:30:42;;;;;;;22.85;11.80;;;;;;;21.00;83.45;100650.67;1903714;75;21067;-71
2022/08/03 01:33:13;;;;;;;18.05;11.18;;;;;;;21.00;83.41;100644.48;1903735;75;21117;-71
2022/08/03 01:36:00;;;;;;;19.42;11.43;;;;;;;21.01;83.44;100642.17;1903750;75;21076;-71
2022/08/03 01:38:35;;;;;;;22.20;11.40;;;;;;;21.05;83.50;100650.30;1903738;75;21035;-71
2022/08/03 01:41:06;;;;;;;17.90;10.95;;;;;;;21.10;83.54;100644.54;1903523;75;21056;-71
2022/08/03 01:43:36;;;;;;;20.72;11.20;;;;;;;21.17;83.42;100649.73;1903501;75;21044;-71
2022/08/03 01:46:07;;;;;;;22.75;10.80;;;;;;;21.17;83.31;100651.07;1903759;75;21441;-71
2022/08/03 01:48:39;;;;;;;18.70;11.00;;;;;;;21.15;83.28;100653.87;1903575;75;21098;-72
2022/08/03 01:51:10;;;;;;;20.85;11.80;;;;;;;21.16;83.50;100653.41;1903810;75;21011;-72
2022/08/03 01:53:44;;;;;;;21.05;10.53;;;;;;;21.19;83.70;100662.03;1903862;75;21011;-71
2022/08/03 01:56:14;;;;;;;29.35;11.03;;;;;;;21.23;83.76;100662.62;1903859;75;21044;-71
2022/08/03 01:58:46;;;;;;;18.52;10.72;;;;;;;21.23;83.61;100669.78;1903869;75;21105;-71
2022/08/03 02:01:17;;;;;;;20.52;10.38;;;;;;;21.19;83.48;100669.19;1903718;75;21063;-71
2022/08/03 02:03:48;;;;;;;24.77;10.03;;;;;;;21.12;83.37;100678.25;1903836;75;21048;-71
2022/08/03 02:06:19;;;;;;;28.60;11.97;;;;;;;21.08;83.32;100679.50;1903832;75;21048;-71
2022/08/03 02:08:50;;;;;;;24.57;11.18;;;;;;;21.02;83.29;100682.67;1903860;75;21113;-71
2022/08/03 02:11:19;;;;;;;28.07;11.65;;;;;;;20.95;83.29;100688.17;1903820;75;21528;-72
2022/08/03 02:13:50;;;;;;;24.12;11.73;;;;;;;20.89;83.31;100687.36;1903751;75;21214;-70
2022/08/03 02:16:21;;;;;;;24.90;13.30;;;;;;;20.81;83.24;100683.48;1903811;75;21012;-68
2022/08/03 02:18:49;;;;;;;24.37;12.33;;;;;;;20.76;83.20;100683.02;1886714;75;21145;-68
2022/08/03 02:21:19;;;;;;;27.75;11.85;;;;;;;20.74;83.20;100694.34;1882695;76;21112;-68
2022/08/03 02:23:48;;;;;;;18.87;11.00;;;;;;;20.73;83.16;100699.81;1882815;76;21105;-67
2022/08/03 02:26:20;;;;;;;20.88;11.85;;;;;;;20.71;83.18;100701.77;1882609;76;21036;-69
2022/08/03 02:28:51;;;;;;;22.13;11.53;;;;;;;20.71;83.19;100705.31;1882689;76;21129;-69
2022/08/03 02:31:23;;;;;;;21.02;11.18;;;;;;;20.71;83.11;100709.33;1882686;76;21109;-68
2022/08/03 02:33:53;;;;;;;22.98;11.25;;;;;;;20.72;83.02;100706.16;1882727;76;21169;-68
2022/08/03 02:36:28;;;;;;;23.12;11.38;;;;;;;20.72;83.02;100711.01;1882822;76;21082;-70
2022/08/03 02:38:59;;;;;;;25.70;12.47;;;;;;;20.73;82.97;100715.39;1882694;75;21127;-69
2022/08/03 02:41:34;;;;;;;26.85;12.25;;;;;;;20.76;82.95;100715.13;1882787;76;21039;-69
2022/08/03 02:44:05;;;;;;;24.40;13.18;;;;;;;20.79;82.92;100722.91;1882729;75;21494;-69
2022/08/03 02:46:37;;;;;;;22.62;12.18;;;;;;;20.83;83.00;100723.01;1882587;75;21478;-70
2022/08/03 02:49:07;;;;;;;24.87;12.95;;;;;;;20.92;83.17;100728.09;1881632;76;21094;-70
2022/08/03 02:51:38;;;;;;;24.85;12.85;;;;;;;20.96;83.24;100722.00;1882762;76;21105;-69
2022/08/03 02:54:08;;;;;;;27.95;13.43;;;;;;;21.10;83.32;100727.06;1882655;76;21540;-70
2022/08/03 02:56:38;;;;;;;20.85;11.80;;;;;;;21.23;83.17;100722.86;1882762;76;21482;-69
2022/08/03 02:59:07;;;;;;;26.48;14.00;;;;;;;21.35;83.14;100735.70;1882683;76;21015;-68
2022/08/03 03:01:37;;;;;;;27.40;12.35;;;;;;;21.46;83.09;100732.14;1882582;76;21494;-69
2022/08/03 03:04:07;;;;;;;23.45;12.20;;;;;;;21.47;83.07;100735.16;1882636;76;21540;-69
2022/08/03 03:06:36;;;;;;;28.12;12.65;;;;;;;21.47;83.07;100737.84;1882769;76;21129;-68
2022/08/03 03:09:06;;;;;;;22.98;11.88;;;;;;;21.47;83.04;100741.39;1882690;76;21052;-68
2022/08/03 03:11:38;;;;;;;23.95;13.32;;;;;;;21.44;82.94;100736.25;1882619;76;21474;-69
2022/08/03 03:14:09;;;;;;;29.20;13.15;;;;;;;21.41;82.87;100736.50;1882566;76;21043;-69
2022/08/03 03:16:39;;;;;;;24.85;12.82;;;;;;;21.37;82.92;100736.41;1882659;76;21051;-69
2022/08/03 03:19:10;;;;;;;25.77;12.40;;;;;;;21.38;83.16;100740.30;1896610;75;21529;-69
2022/08/03 03:21:39;;;;;;;23.55;12.55;;;;;;;21.50;83.56;100743.79;1903804;75;21112;-68
2022/08/03 03:24:09;;;;;;;26.90;13.78;;;;;;;21.68;84.14;100739.20;1903798;75;21129;-69
2022/08/03 03:26:38;;;;;;;28.12;12.33;;;;;;;21.88;84.82;100740.16;1903674;75;21486;-68
2022/08/03 03:29:08;;;;;;;38.40;13.22;;;;;;;22.06;85.29;100741.70;1903908;75;21466;-68
2022/08/03 03:31:37;;;;;;;27.67;11.55;;;;;;;22.19;85.37;100736.98;1903881;75;21016;-68
2022/08/03 03:34:06;;;;;;;28.45;11.83;;;;;;;22.30;85.20;100738.25;1903796;75;21040;-68
2022/08/03 03:36:36;;;;;;;27.40;10.68;;;;;;;22.40;84.95;100740.11;1903789;75;21055;-67
2022/08/03 03:39:05;;;;;;;24.85;10.05;;;;;;;22.43;84.53;100747.39;1903709;75;21141;-68
2022/08/03 03:41:34;;;;;;;26.05;11.75;;;;;;;22.50;84.26;100747.67;1903767;75;21153;-67
2022/08/03 03:44:03;;;;;;;25.35;11.05;;;;;;;22.51;83.87;100746.70;1903819;75;21544;-67
2022/08/03 03:46:32;;;;;;;21.25;11.48;;;;;;;22.44;83.16;100746.89;1903862;75;21530;-67
2022/08/03 03:49:01;;;;;;;22.13;10.40;;;;;;;22.43;82.62;100753.23;1903801;75;21011;-67
2022/08/03 03:51:30;;;;;;;23.90;11.78;;;;;;;22.44;82.16;100747.73;1903620;75;21175;-68
2022/08/03 03:54:02;;;;;;;19.27;10.95;;;;;;;22.66;82.20;100757.39;1903890;75;21101;-67
2022/08/03 03:56:31;;;;;;;19.57;10.70;;;;;;;22.93;82.63;100750.03;1903837;75;21101;-69
2022/08/03 03:59:00;;;;;;;21.48;10.70;;;;;;;23.22;82.80;100753.73;1903753;75;21040;-68
2022/08/03 04:01:29;;;;;;;20.60;11.55;;;;;;;23.43;82.68;100757.12;1903693;75;21117;-69
2022/08/03 04:10:57;;;;;;;21.15;11.05;;;;;;;23.68;82.37;100756.16;1903682;75;21060;-69
2022/08/03 04:12:02;;;;;;;27.07;12.85;;;;;;;24.63;80.88;100757.82;1903711;75;21071;-69
2022/08/03 04:14:34;;;;;;;29.57;11.00;;;;;;;24.89;80.07;100757.09;1903612;75;21470;-68
2022/08/03 04:17:05;;;;;;;28.02;10.53;;;;;;;25.19;79.35;100755.84;1903745;75;21032;-68
2022/08/03 04:19:40;;;;;;;33.02;11.93;;;;;;;25.45;78.45;100759.13;1892761;75;21106;-68
2022/08/03 04:22:11;;;;;;;31.30;11.65;;;;;;;25.72;77.84;100750.06;1882687;75;21518;-68
2022/08/03 04:24:48;;;;;;;44.03;12.30;;;;;;;26.03;77.30;100751.47;1882748;76;21032;-67
2022/08/03 04:27:20;;;;;;;33.28;11.83;;;;;;;26.26;76.74;100757.97;1882142;76;21104;-68
2022/08/03 04:29:51;;;;;;;20.10;9.90;;;;;;;26.54;76.17;100757.25;1882745;75;21541;-67
2022/08/03 04:32:24;;;;;;;18.87;9.15;;;;;;;26.72;75.00;100761.71;1882793;75;21098;-68
2022/08/03 04:34:53;;;;;;;23.55;10.15;;;;;;;26.85;74.31;100759.37;1882790;76;21122;-68
2022/08/03 04:37:28;;;;;;;18.12;9.83;;;;;;;26.99;73.77;100761.94;1882545;76;21466;-68
2022/08/03 04:39:59;;;;;;;21.23;9.33;;;;;;;27.16;73.34;100760.94;1882387;76;21114;-67
2022/08/03 04:42:29;;;;;;;27.00;9.43;;;;;;;27.28;72.77;100759.27;1882607;76;21584;-67
2022/08/03 04:44:58;;;;;;;28.60;11.03;;;;;;;27.33;71.81;100764.55;1882748;76;21498;-67
2022/08/03 04:47:27;;;;;;;32.40;11.45;;;;;;;27.48;71.45;100762.00;1882624;76;21016;-67
2022/08/03 04:49:56;;;;;;;21.68;9.85;;;;;;;27.48;71.00;100765.19;1882541;76;21015;-68
2022/08/03 04:52:25;;;;;;;13.45;7.95;;;;;;;27.50;70.23;100763.16;1882756;76;21083;-67
2022/08/03 04:54:53;;;;;;;14.60;6.92;;;;;;;27.69;70.02;100770.09;1882674;76;21079;-67
2022/08/03 04:57:22;;;;;;;12.68;7.17;;;;;;;27.87;69.45;100767.19;1882706;75;21039;-67
2022/08/03 04:59:57;;;;;;;11.57;7.50;;;;;;;28.09;68.78;100765.13;1882631;76;21039;-67
2022/08/03 05:02:23;;;;;;;11.00;7.35;;;;;;;28.26;67.99;100766.42;1881955;76;21051;-67
2022/08/03 05:04:53;;;;;;;13.32;7.75;;;;;;;28.50;67.81;100762.25;1882631;76;21555;-67
2022/08/03 05:07:21;;;;;;;12.78;7.75;;;;;;;28.76;67.39;100770.61;1882632;76;21506;-67
2022/08/03 05:09:50;;;;;;;10.48;6.65;;;;;;;28.82;66.53;100764.98;1882595;76;21039;-67
2022/08/03 05:12:18;;;;;;;11.93;7.42;;;;;;;28.97;66.10;100763.18;1882675;76;21111;-67
2022/08/03 05:14:47;;;;;;;17.25;7.12;;;;;;;29.30;65.73;100766.20;1882609;76;21482;-67
2022/08/03 05:17:16;;;;;;;14.15;7.42;;;;;;;29.61;65.24;100768.28;1882545;76;21246;-67
2022/08/03 05:19:44;;;;;;;14.85;7.12;;;;;;;29.86;64.13;100768.58;1882601;75;21111;-67
2022/08/03 05:22:13;;;;;;;13.20;7.95;;;;;;;30.14;63.77;100768.80;1882598;76;21036;-67
2022/08/03 05:24:41;;;;;;;14.50;6.70;;;;;;;30.37;62.38;100773.61;1882655;76;21040;-67
2022/08/03 05:27:16;;;;;;;12.18;6.80;;;;;;;30.62;62.47;100767.88;1882723;76;21012;-67
2022/08/03 05:29:40;;;;;;;12.58;6.78;;;;;;;30.87;61.45;100773.78;1882128;76;21040;-68
2022/08/03 05:32:09;;;;;;;13.10;7.35;;;;;;;31.05;60.84;100776.09;1882701;76;21109;-67
2022/08/03 05:34:37;;;;;;;13.90;6.45;;;;;;;30.97;59.97;100772.99;1882814;76;21093;-67
2022/08/03 05:37:06;;;;;;;9.33;6.37;;;;;;;31.26;60.09;100778.48;1882729;76;21003;-67
2022/08/03 05:39:35;;;;;;;10.78;6.67;;;;;;;31.61;59.59;100771.28;1882798;76;21150;-67
2022/08/03 05:42:04;;;;;;;9.83;6.37;;;;;;;31.83;58.40;100770.70;1882611;76;21161;-68
2022/08/03 05:44:33;;;;;;;10.58;6.25;;;;;;;31.93;57.22;100776.64;1882728;76;21044;-67
2022/08/03 05:47:01;;;;;;;14.10;7.45;;;;;;;32.15;56.90;100779.33;1882727;76;21584;-67
2022/08/03 05:49:30;;;;;;;10.95;6.33;;;;;;;32.46;56.44;100775.27;1882866;76;21064;-67
2022/08/03 05:51:59;;;;;;;13.10;7.37;;;;;;;32.68;56.20;100774.14;1882686;76;21044;-67
2022/08/03 05:54:27;;;;;;;9.95;7.10;;;;;;;32.79;55.62;100775.94;1882771;75;21109;-68
2022/08/03 05:56:56;;;;;;;14.63;6.25;;;;;;;32.90;54.78;100771.23;1882761;76;21099;-67
2022/08/03 05:59:25;;;;;;;10.35;6.10;;;;;;;33.24;54.21;100826.22;1882696;76;21153;-67
2022/08/03 06:01:54;;;;;;;13.10;6.47;;;;;;;32.89;53.37;100769.05;1882716;76;21035;-67
2022/08/03 06:04:22;;;;;;;12.82;6.60;;;;;;;33.11;53.33;100772.11;1882760;75;21112;-67
2022/08/03 06:06:51;;;;;;;11.22;6.25;;;;;;;33.27;53.42;100773.10;1882831;76;21040;-67
2022/08/03 06:09:19;;;;;;;12.53;6.00;;;;;;;33.54;52.53;100768.50;1882721;76;21040;-67
2022/08/03 06:11:48;;;;;;;10.18;5.55;;;;;;;33.14;52.18;100770.38;1882777;76;21043;-67
2022/08/03 06:14:17;;;;;;;11.85;6.65;;;;;;;32.73;52.31;100757.16;1882730;76;21016;-67
2022/08/03 06:16:45;;;;;;;12.55;6.70;;;;;;;32.87;52.29;100763.49;1882748;76;21043;-67
2022/08/03 06:19:14;;;;;;;13.75;6.60;;;;;;;32.42;52.33;100760.37;1882761;76;21522;-67
2022/08/03 06:21:43;;;;;;;9.83;5.20;;;;;;;31.70;52.62;100759.20;1899835;75;21087;-67
2022/08/03 06:24:11;;;;;;;11.93;4.87;;;;;;;30.97;52.82;100759.92;1903916;75;21129;-67
2022/08/03 06:26:40;;;;;;;8.85;5.60;;;;;;;30.45;53.34;100762.31;1904112;75;21024;-67
2022/08/03 06:29:08;;;;;;;10.13;5.60;;;;;;;30.31;53.73;100757.22;1903917;75;21048;-67
2022/08/03 06:31:38;;;;;;;12.03;5.47;;;;;;;30.16;53.97;100754.52;1903793;75;21482;-67
2022/08/03 06:34:07;;;;;;;7.20;4.75;;;;;;;29.94;54.68;100758.48;1903719;75;21121;-67
2022/08/03 06:36:36;;;;;;;9.48;4.97;;;;;;;29.76;54.81;100760.20;1903822;75;21548;-67
2022/08/03 06:39:05;;;;;;;6.47;4.60;;;;;;;29.71;54.63;100757.16;1904033;75;21135;-67
2022/08/03 06:41:34;;;;;;;6.80;4.70;;;;;;;29.94;54.54;100760.37;1904026;75;21470;-67
2022/08/03 06:44:05;;;;;;;6.28;4.37;;;;;;;30.84;53.65;100767.88;1903907;75;21386;-67
2022/08/03 06:46:34;;;;;;;7.60;4.70;;;;;;;31.16;52.78;100761.98;1903850;75;21056;-67
2022/08/03 06:49:02;;;;;;;11.50;5.12;;;;;;;30.98;52.58;100770.58;1903738;75;21611;-67
2022/08/03 06:51:31;;;;;;;9.50;5.22;;;;;;;30.75;52.64;100767.19;1903807;75;21145;-67
2022/08/03 06:54:00;;;;;;;9.35;5.28;;;;;;;30.56;53.04;100774.05;1903788;75;21040;-67
2022/08/03 06:56:28;;;;;;;9.18;5.10;;;;;;;30.60;53.08;100768.06;1903768;75;21110;-67
2022/08/03 06:58:57;;;;;;;10.70;4.55;;;;;;;30.85;52.79;100776.37;1903812;75;21106;-67
2022/08/03 07:01:25;;;;;;;8.23;4.67;;;;;;;31.55;51.84;100778.35;1903684;75;21082;-67
2022/08/03 07:03:55;;;;;;;6.17;4.50;;;;;;;32.44;50.39;100774.62;1904047;75;21048;-67
2022/08/03 07:06:23;;;;;;;4.75;3.60;;;;;;;33.06;49.96;100776.84;1903842;75;21051;-67
2022/08/03 07:08:52;;;;;;;7.95;4.17;;;;;;;33.56;48.83;100779.20;1903867;75;21040;-67
2022/08/03 07:11:20;;;;;;;7.08;3.90;;;;;;;33.89;47.06;100775.64;1903834;75;21051;-67
2022/08/03 07:13:49;;;;;;;8.78;4.33;;;;;;;33.82;46.57;100781.09;1903672;75;21052;-67
2022/08/03 07:16:18;;;;;;;7.10;4.33;;;;;;;33.51;45.62;100775.73;1903907;75;21048;-67
2022/08/03 07:18:46;;;;;;;6.65;3.70;;;;;;;33.06;45.79;100791.31;1903924;75;21125;-67
2022/08/03 07:21:15;;;;;;;9.85;5.00;;;;;;;32.60;46.52;100786.57;1903763;74;21087;-67
2022/08/03 07:23:44;;;;;;;7.78;4.00;;;;;;;32.32;47.08;100786.11;1904027;75;21205;-67
2022/08/03 07:26:13;;;;;;;6.97;4.15;;;;;;;32.08;47.42;100783.89;1903735;75;21047;-68
2022/08/03 07:28:41;;;;;;;7.10;3.87;;;;;;;31.86;47.64;100779.84;1903893;75;21000;-67
2022/08/03 07:31:10;;;;;;;9.60;3.90;;;;;;;31.98;47.84;100780.64;1903803;75;21048;-67
2022/08/03 07:33:39;;;;;;;7.45;4.87;;;;;;;32.33;48.22;100785.58;1903797;75;21031;-67
2022/08/03 07:36:08;;;;;;;6.62;4.33;;;;;;;33.20;47.94;100779.08;1903810;75;21039;-67
2022/08/03 07:38:36;;;;;;;6.65;4.22;;;;;;;34.18;47.09;100781.17;1903785;75;21052;-67
2022/08/03 07:41:05;;;;;;;7.15;3.90;;;;;;;34.43;46.44;100779.90;1903719;75;21172;-67
2022/08/03 07:43:33;;;;;;;5.72;3.87;;;;;;;34.03;45.97;100770.43;1903819;75;21040;-67
2022/08/03 07:46:02;;;;;;;4.95;3.87;;;;;;;33.54;46.31;100771.76;1903840;75;21047;-67
2022/08/03 07:48:31;;;;;;;5.50;3.83;;;;;;;33.11;46.50;100780.30;1903778;75;21036;-67
2022/08/03 07:50:59;;;;;;;7.85;3.85;;;;;;;33.28;46.19;100779.72;1903810;75;21034;-67
2022/08/03 07:53:28;;;;;;;4.70;3.75;;;;;;;32.84;46.02;100778.89;1903664;75;21106;-67
2022/08/03 07:55:56;;;;;;;7.37;4.37;;;;;;;32.09;46.20;100782.84;1904054;75;21157;-67
2022/08/03 07:58:25;;;;;;;5.40;3.95;;;;;;;32.13;46.03;100780.05;1903856;75;21071;-67
2022/08/03 08:00:54;;;;;;;4.92;3.58;;;;;;;32.74;44.74;100782.52;1903800;75;21047;-67
2022/08/03 08:03:22;;;;;;;5.83;3.52;;;;;;;33.61;44.44;100769.87;1903791;75;21052;-67
2022/08/03 08:05:52;;;;;;;4.37;3.10;;;;;;;34.35;43.01;100682.59;1903706;75;21007;-68
2022/08/03 08:08:21;;;;;;;7.42;3.15;;;;;;;34.86;41.60;100764.77;1903885;75;21537;-67
2022/08/03 08:10:49;;;;;;;4.72;3.30;;;;;;;35.30;40.83;100773.45;1903804;75;21036;-67
2022/08/03 08:13:18;;;;;;;7.22;3.52;;;;;;;35.63;39.67;100764.09;1903754;75;21016;-67
2022/08/03 08:15:46;;;;;;;4.87;3.58;;;;;;;35.77;38.79;100767.58;1903773;75;21168;-68
2022/08/03 08:18:15;;;;;;;5.97;3.87;;;;;;;36.02;37.86;100756.55;1903793;75;21109;-68
2022/08/03 08:20:44;;;;;;;3.60;2.80;;;;;;;35.78;36.77;100765.13;1903861;75;21200;-67
2022/08/03 08:23:12;;;;;;;5.25;3.40;;;;;;;35.98;36.73;100768.20;1903913;75;21083;-67
2022/08/03 08:25:41;;;;;;;3.90;3.00;;;;;;;36.17;36.19;100774.52;1903898;75;21113;-67
2022/08/03 08:28:10;;;;;;;4.40;3.25;;;;;;;36.40;36.35;100774.69;1903787;75;21583;-67
2022/08/03 08:30:38;;;;;;;10.40;3.80;;;;;;;36.25;36.71;100767.40;1903774;75;21036;-67
2022/08/03 08:33:07;;;;;;;6.05;2.62;;;;;;;36.25;34.92;100756.44;1903766;75;21051;-67
2022/08/03 08:35:36;;;;;;;5.33;2.60;;;;;;;36.14;34.37;100768.42;1903819;75;21051;-67
2022/08/03 08:38:04;;;;;;;6.87;3.65;;;;;;;36.21;34.70;100766.16;1903781;75;21055;-67
2022/08/03 08:40:33;;;;;;;5.62;3.33;;;;;;;36.38;34.04;100764.48;1903886;75;21130;-67
2022/08/03 08:43:02;;;;;;;4.08;3.17;;;;;;;36.33;34.18;100765.16;1903798;75;21043;-68
2022/08/03 08:45:32;;;;;;;8.10;3.35;;;;;;;36.28;34.42;100757.33;1903905;75;21466;-69
2022/08/03 08:48:03;;;;;;;5.80;3.40;;;;;;;36.51;34.20;100762.11;1903763;75;21435;-67
2022/08/03 08:50:32;;;;;;;6.37;2.70;;;;;;;36.35;33.72;100763.56;1903872;75;21101;-67
2022/08/03 08:53:02;;;;;;;3.67;3.20;;;;;;;36.34;33.73;100750.94;1903730;75;21577;-67
2022/08/03 08:55:32;;;;;;;4.62;2.80;;;;;;;36.33;32.55;100753.37;1903870;75;21105;-67
2022/08/03 08:58:03;;;;;;;4.20;2.33;;;;;;;36.33;31.96;100757.48;1903674;75;21109;-68
2022/08/03 09:00:32;;;;;;;3.02;2.20;;;;;;;36.01;31.72;100755.42;1903839;75;21595;-67
2022/08/03 09:03:01;;;;;;;6.15;3.00;;;;;;;36.43;32.19;100763.27;1903860;75;21047;-67
2022/08/03 09:05:33;;;;;;;3.25;2.55;;;;;;;36.46;31.78;100758.67;1903877;75;21479;-67
2022/08/03 09:08:01;;;;;;;;;;;;;;;36.26;31.75;100760.33;1906620;75;21036;-68
2022/08/03 09:10:30;;;;;;;4.53;2.95;;;;;;;36.30;31.36;100753.84;1903676;75;20103;-68
2022/08/03 09:12:58;;;;;;;4.10;2.75;;;;;;;36.50;32.22;100762.65;1903838;75;21063;-67
2022/08/03 09:15:32;;;;;;;3.33;2.42;;;;;;;36.50;31.60;100759.91;1903753;75;21118;-67
2022/08/03 09:18:03;;;;;;;4.78;2.70;;;;;;;36.55;31.40;100763.31;1903733;75;21043;-67
2022/08/03 09:20:35;;;;;;;3.50;2.70;;;;;;;36.21;31.77;100771.64;1903761;75;21036;-67
2022/08/03 09:23:09;;;;;;;3.67;2.70;;;;;;;36.24;32.40;100753.38;1903696;75;21071;-68
2022/08/03 09:25:40;;;;;;;4.92;2.20;;;;;;;36.28;31.51;100773.77;1903727;75;21117;-67
2022/08/03 09:28:14;;;;;;;4.20;2.90;;;;;;;36.13;31.09;100776.36;1903750;75;21012;-67
2022/08/03 09:30:45;;;;;;;4.15;1.90;;;;;;;36.18;30.10;100776.20;1903820;75;21023;-67
2022/08/03 09:33:15;;;;;;;4.03;2.25;;;;;;;36.25;30.34;100775.63;1903721;75;21063;-67
2022/08/03 09:35:46;;;;;;;3.77;2.85;;;;;;;36.64;30.51;100774.80;1903615;75;21454;-67
2022/08/03 09:38:24;;;;;;;3.03;2.33;;;;;;;36.69;30.24;100784.03;1903986;75;21012;-67
2022/08/03 09:40:55;;;;;;;4.80;2.50;;;;;;;36.43;29.96;100785.71;1903854;75;21044;-67
2022/08/03 09:43:26;;;;;;;7.83;3.08;;;;;;;36.04;29.98;100783.21;1903739;75;21129;-67
2022/08/03 09:46:06;;;;;;;5.60;2.62;;;;;;;35.87;30.01;100776.64;1903660;75;21020;-68
2022/08/03 09:48:36;;;;;;;3.65;1.92;;;;;;;35.78;30.11;100762.93;1903729;75;21019;-68
2022/08/03 09:51:06;;;;;;;3.25;2.10;;;;;;;35.64;29.47;100772.63;1903817;75;21036;-68
2022/08/03 09:53:43;;;;;;;6.58;2.33;;;;;;;35.74;30.09;100778.44;1903770;75;21110;-67
2022/08/03 09:56:13;;;;;;;5.95;2.20;;;;;;;35.99;29.63;100780.85;1903833;75;21039;-68
2022/08/03 09:58:49;;;;;;;7.60;2.22;;;;;;;35.87;29.10;100779.37;1903669;75;21186;-67
2022/08/03 10:01:18;;;;;;;4.08;1.90;;;;;;;35.72;29.66;100776.45;1903836;75;21040;-67
2022/08/03 10:03:50;;;;;;;2.22;1.70;;;;;;;35.95;30.06;100788.69;1903740;75;21537;-67
2022/08/03 10:06:22;;;;;;;4.40;1.82;;;;;;;36.04;29.95;100786.46;1901914;75;21047;-67
2022/08/03 10:09:06;;;;;;;5.67;2.30;;;;;;;35.86;28.83;100787.30;1903854;75;21467;-68
2022/08/03 10:11:35;;;;;;;3.10;2.15;;;;;;;35.57;29.20;100784.16;1903405;75;21490;-67
2022/08/03 10:14:06;;;;;;;2.98;2.17;;;;;;;35.40;29.17;100790.73;1903907;75;21106;-67
2022/08/03 10:16:39;;;;;;;14.13;3.60;;;;;;;35.29;29.59;100792.83;1903232;75;21047;-67
2022/08/03 10:19:09;;;;;;;4.22;2.33;;;;;;;35.28;29.84;100784.30;1903829;75;21011;-67
2022/08/03 10:21:44;;;;;;;2.95;2.52;;;;;;;35.13;30.49;100790.06;1903893;75;21427;-67
2022/08/03 10:24:14;;;;;;;5.72;2.22;;;;;;;34.94;30.28;100795.45;1903320;75;21595;-67
2022/08/03 10:26:46;;;;;;;7.05;2.33;;;;;;;34.97;31.02;100787.31;1903889;75;21110;-67
2022/08/03 10:29:17;;;;;;;5.50;2.62;;;;;;;35.02;31.03;100783.39;1903957;75;21036;-67
2022/08/03 10:31:48;;;;;;;3.90;2.47;;;;;;;34.74;32.34;100790.63;1903619;75;21008;-68
2022/08/03 10:34:22;;;;;;;9.53;2.85;;;;;;;34.74;32.34;100790.63;1903817;75;21043;-67
2022/08/03 10:36:54;;;;;;;5.25;3.58;;;;;;;34.78;31.52;100786.39;1902801;75;21113;-67
2022/08/03 10:39:24;;;;;;;3.27;2.00;;;;;;;34.54;31.45;100781.95;1903937;75;21532;-67
2022/08/03 10:41:57;;;;;;;9.45;2.47;;;;;;;34.36;32.08;100781.81;1903806;75;21044;-68
2022/08/03 10:44:26;;;;;;;;;;;;;;;34.46;32.21;100778.64;1906566;75;21035;-67
2022/08/03 10:46:56;;;;;;;6.28;2.25;;;;;;;34.36;31.44;100788.65;1903835;75;20103;-67
2022/08/03 10:49:26;;;;;;;3.27;2.22;;;;;;;34.12;31.73;100781.44;1903934;75;21031;-67
2022/08/03 10:51:54;;;;;;;4.65;2.27;;;;;;;34.10;31.67;100790.38;1903820;75;21110;-67
2022/08/03 10:57:49;;;;;;;3.98;2.10;;;;;;;33.64;32.36;100784.44;1903840;75;21023;-67
2022/08/03 11:00:24;;;;;;;4.05;2.87;;;;;;;33.53;33.01;100788.64;1903870;75;21541;-67
2022/08/03 11:02:58;;;;;;;2.98;2.20;;;;;;;33.62;33.45;100783.28;1903844;75;21138;-67
2022/08/03 11:05:32;;;;;;;5.55;2.40;;;;;;;33.35;32.99;100790.66;1896133;75;21248;-67
2022/08/03 11:08:37;;;;;;;3.87;2.42;;;;;;;33.13;33.18;100766.81;1903931;75;21012;-67
2022/08/03 11:11:22;;;;;;;2.58;2.00;;;;;;;33.00;33.29;100779.87;1902937;75;21109;-67
2022/08/03 11:14:11;;;;;;;4.10;2.30;;;;;;;32.57;33.64;100789.66;1903837;75;21130;-67
2022/08/03 11:16:40;;;;;;;4.97;2.40;;;;;;;32.40;34.60;100777.45;1902575;75;21016;-67
2022/08/03 11:19:12;;;;;;;3.87;2.65;;;;;;;32.40;34.59;100785.63;1903701;75;21036;-67
2022/08/03 11:21:52;;;;;;;4.37;2.52;;;;;;;32.44;34.56;100778.72;1903967;75;21047;-66
2022/08/03 11:24:53;;;;;;;3.47;2.33;;;;;;;32.28;34.67;100780.75;1895647;75;21157;-67
2022/08/03 11:27:23;;;;;;;3.20;2.37;;;;;;;32.28;34.98;100784.00;1882972;76;21044;-67
2022/08/03 11:30:09;;;;;;;3.47;2.20;;;;;;;32.35;34.94;100782.13;1882691;76;21490;-67
2022/08/03 11:32:44;;;;;;;5.50;2.45;;;;;;;32.37;34.86;100788.74;1882716;76;21466;-67
2022/08/03 11:35:28;;;;;;;4.10;2.77;;;;;;;32.39;34.86;100796.19;1882642;76;21114;-67
2022/08/03 11:38:02;;;;;;;6.17;2.92;;;;;;;32.20;35.34;100794.52;1882660;76;21047;-67
2022/08/03 11:40:37;;;;;;;5.85;2.52;;;;;;;32.13;35.46;100793.67;1882703;76;21032;-66
2022/08/03 11:43:27;;;;;;;4.45;2.92;;;;;;;32.04;35.92;100778.00;1882795;76;21114;-66
2022/08/03 11:46:01;;;;;;;5.20;2.95;;;;;;;32.00;36.44;100786.23;1882681;76;21036;-67